sensor_id;sensor_type;location;lat;lon;timestamp;P1;durP1;ratioP1;P2;durP2;ratioP2
26271;SDS011;13997;48.902;12.472;2022-09-17T00:01:53;6.05;;;2.30;;
26271;SDS011;13997;48.902;12.472;2022-09-17T00:04:18;7.68;;;2.50;;
26271;SDS011;13997;48.902;12.472;2022-09-17T00:06:44;4.63;;;2.95;;
26271;SDS011;13997;48.902;12.472;2022-09-17T00:09:10;5.90;;;2.67;;
26271;SDS011;13997;48.902;12.472;2022-09-17T00:11:38;8.57;;;2.72;;
26271;SDS011;13997;48.902;12.472;2022-09-17T00:14:06;6.47;;;2.97;;
26271;SDS011;13997;48.902;12.472;2022-09-17T00:16:38;6.47;;;3.08;;
26271;SDS011;13997;48.902;12.472;2022-09-17T00:19:05;10.60;;;3.03;;
26271;SDS011;13997;48.902;12.472;2022-09-17T00:21:34;8.93;;;3.08;;
26271;SDS011;13997;48.902;12.472;2022-09-17T00:24:01;7.28;;;2.88;;
26271;SDS011;13997;48.902;12.472;2022-09-17T00:26:29;7.80;;;3.00;;
26271;SDS011;13997;48.902;12.472;2022-09-17T00:28:56;6.10;;;2.42;;
26271;SDS011;13997;48.902;12.472;2022-09-17T00:31:23;8.60;;;3.05;;
26271;SDS011;13997;48.902;12.472;2022-09-17T00:33:49;12.43;;;3.42;;
26271;SDS011;13997;48.902;12.472;2022-09-17T00:36:16;9.38;;;3.67;;
26271;SDS011;13997;48.902;12.472;2022-09-17T00:38:42;9.70;;;2.97;;
26271;SDS011;13997;48.902;12.472;2022-09-17T00:41:08;12.60;;;3.08;;
26271;SDS011;13997;48.902;12.472;2022-09-17T00:43:41;8.48;;;3.08;;
26271;SDS011;13997;48.902;12.472;2022-09-17T00:46:18;6.72;;;2.75;;
26271;SDS011;13997;48.902;12.472;2022-09-17T00:48:58;4.75;;;2.63;;
26271;SDS011;13997;48.902;12.472;2022-09-17T00:51:29;8.98;;;2.70;;
26271;SDS011;13997;48.902;12.472;2022-09-17T00:54:03;4.22;;;2.38;;
26271;SDS011;13997;48.902;12.472;2022-09-17T00:56:32;10.93;;;2.70;;
26271;SDS011;13997;48.902;12.472;2022-09-17T00:58:59;6.85;;;2.67;;
26271;SDS011;13997;48.902;12.472;2022-09-17T01:01:26;4.60;;;2.50;;
26271;SDS011;13997;48.902;12.472;2022-09-17T01:03:53;6.90;;;2.80;;
26271;SDS011;13997;48.902;12.472;2022-09-17T01:06:31;6.28;;;2.53;;
26271;SDS011;13997;48.902;12.472;2022-09-17T01:17:28;4.05;;;2.35;;
26271;SDS011;13997;48.902;12.472;2022-09-17T01:20:21;4.45;;;2.30;;
26271;SDS011;13997;48.902;12.472;2022-09-17T01:25:57;4.50;;;2.22;;
26271;SDS011;13997;48.902;12.472;2022-09-17T01:29:05;4.05;;;2.05;;
26271;SDS011;13997;48.902;12.472;2022-09-17T01:31:51;3.25;;;2.50;;
26271;SDS011;13997;48.902;12.472;2022-09-17T01:34:43;3.00;;;2.53;;
26271;SDS011;13997;48.902;12.472;2022-09-17T01:37:14;3.35;;;2.40;;
26271;SDS011;13997;48.902;12.472;2022-09-17T01:43:05;4.57;;;2.70;;
26271;SDS011;13997;48.902;12.472;2022-09-17T01:45:46;7.38;;;2.63;;
26271;SDS011;13997;48.902;12.472;2022-09-17T01:48:39;6.85;;;2.90;;
26271;SDS011;13997;48.902;12.472;2022-09-17T01:51:29;8.45;;;2.60;;
26271;SDS011;13997;48.902;12.472;2022-09-17T01:56:36;3.17;;;2.63;;
26271;SDS011;13997;48.902;12.472;2022-09-17T02:01:45;4.13;;;2.53;;
26271;SDS011;13997;48.902;12.472;2022-09-17T02:04:16;3.25;;;2.75;;
26271;SDS011;13997;48.902;12.472;2022-09-17T02:06:45;4.78;;;2.65;;
26271;SDS011;13997;48.902;12.472;2022-09-17T02:09:16;5.72;;;2.95;;
26271;SDS011;13997;48.902;12.472;2022-09-17T02:11:46;6.38;;;2.97;;
26271;SDS011;13997;48.902;12.472;2022-09-17T02:14:18;7.18;;;3.00;;
26271;SDS011;13997;48.902;12.472;2022-09-17T02:16:49;6.25;;;2.92;;
26271;SDS011;13997;48.902;12.472;2022-09-17T02:19:20;5.95;;;2.70;;
26271;SDS011;13997;48.902;12.472;2022-09-17T02:24:43;5.47;;;2.85;;
26271;SDS011;13997;48.902;12.472;2022-09-17T02:29:48;5.38;;;2.70;;
26271;SDS011;13997;48.902;12.472;2022-09-17T02:32:13;8.95;;;3.05;;
26271;SDS011;13997;48.902;12.472;2022-09-17T02:34:39;4.38;;;2.72;;
26271;SDS011;13997;48.902;12.472;2022-09-17T02:37:05;4.32;;;3.10;;
26271;SDS011;13997;48.902;12.472;2022-09-17T02:39:31;4.25;;;3.20;;
26271;SDS011;13997;48.902;12.472;2022-09-17T02:47:38;9.13;;;4.55;;
26271;SDS011;13997;48.902;12.472;2022-09-17T02:58:37;6.78;;;3.33;;
26271;SDS011;13997;48.902;12.472;2022-09-17T03:01:07;4.85;;;3.55;;
26271;SDS011;13997;48.902;12.472;2022-09-17T03:03:40;4.43;;;3.70;;
26271;SDS011;13997;48.902;12.472;2022-09-17T03:08:37;4.40;;;2.88;;
26271;SDS011;13997;48.902;12.472;2022-09-17T03:11:05;4.70;;;3.42;;
26271;SDS011;13997;48.902;12.472;2022-09-17T03:13:33;6.07;;;2.97;;
26271;SDS011;13997;48.902;12.472;2022-09-17T03:16:00;9.52;;;3.00;;
26271;SDS011;13997;48.902;12.472;2022-09-17T03:18:27;4.15;;;3.00;;
26271;SDS011;13997;48.902;12.472;2022-09-17T03:20:52;7.63;;;3.28;;
26271;SDS011;13997;48.902;12.472;2022-09-17T03:23:18;4.05;;;2.90;;
26271;SDS011;13997;48.902;12.472;2022-09-17T03:25:44;6.07;;;2.95;;
26271;SDS011;13997;48.902;12.472;2022-09-17T03:28:10;8.32;;;3.13;;
26271;SDS011;13997;48.902;12.472;2022-09-17T03:30:36;9.55;;;2.67;;
26271;SDS011;13997;48.902;12.472;2022-09-17T03:33:01;9.35;;;2.90;;
26271;SDS011;13997;48.902;12.472;2022-09-17T03:35:27;6.43;;;2.55;;
26271;SDS011;13997;48.902;12.472;2022-09-17T03:37:52;5.82;;;2.83;;
26271;SDS011;13997;48.902;12.472;2022-09-17T03:40:18;5.85;;;2.30;;
26271;SDS011;13997;48.902;12.472;2022-09-17T03:42:44;3.75;;;2.80;;
26271;SDS011;13997;48.902;12.472;2022-09-17T03:45:10;9.60;;;2.85;;
26271;SDS011;13997;48.902;12.472;2022-09-17T03:47:36;8.98;;;3.03;;
26271;SDS011;13997;48.902;12.472;2022-09-17T03:50:02;4.38;;;2.58;;
26271;SDS011;13997;48.902;12.472;2022-09-17T03:52:29;8.38;;;2.92;;
26271;SDS011;13997;48.902;12.472;2022-09-17T03:54:55;10.30;;;2.92;;
26271;SDS011;13997;48.902;12.472;2022-09-17T03:57:20;6.90;;;3.13;;
26271;SDS011;13997;48.902;12.472;2022-09-17T03:59:46;8.00;;;2.88;;
26271;SDS011;13997;48.902;12.472;2022-09-17T04:02:12;6.35;;;3.03;;
26271;SDS011;13997;48.902;12.472;2022-09-17T04:04:38;7.53;;;2.80;;
26271;SDS011;13997;48.902;12.472;2022-09-17T04:07:04;7.82;;;2.80;;
26271;SDS011;13997;48.902;12.472;2022-09-17T04:09:29;10.50;;;2.90;;
26271;SDS011;13997;48.902;12.472;2022-09-17T04:11:55;7.05;;;3.22;;
26271;SDS011;13997;48.902;12.472;2022-09-17T04:14:21;9.50;;;2.80;;
26271;SDS011;13997;48.902;12.472;2022-09-17T04:16:46;9.40;;;3.10;;
26271;SDS011;13997;48.902;12.472;2022-09-17T04:19:12;6.25;;;3.05;;
26271;SDS011;13997;48.902;12.472;2022-09-17T04:21:37;7.93;;;3.10;;
26271;SDS011;13997;48.902;12.472;2022-09-17T04:24:03;8.68;;;3.22;;
26271;SDS011;13997;48.902;12.472;2022-09-17T04:26:29;7.85;;;3.10;;
26271;SDS011;13997;48.902;12.472;2022-09-17T04:28:54;8.75;;;2.75;;
26271;SDS011;13997;48.902;12.472;2022-09-17T04:31:20;10.95;;;3.08;;
26271;SDS011;13997;48.902;12.472;2022-09-17T04:33:48;8.65;;;2.97;;
26271;SDS011;13997;48.902;12.472;2022-09-17T04:36:14;11.77;;;3.45;;
26271;SDS011;13997;48.902;12.472;2022-09-17T04:38:40;6.47;;;2.95;;
26271;SDS011;13997;48.902;12.472;2022-09-17T04:41:06;6.32;;;3.17;;
26271;SDS011;13997;48.902;12.472;2022-09-17T04:43:31;8.68;;;2.90;;
26271;SDS011;13997;48.902;12.472;2022-09-17T04:45:57;8.32;;;3.30;;
26271;SDS011;13997;48.902;12.472;2022-09-17T04:48:23;7.97;;;3.05;;
26271;SDS011;13997;48.902;12.472;2022-09-17T04:50:48;8.25;;;3.10;;
26271;SDS011;13997;48.902;12.472;2022-09-17T04:53:14;6.38;;;3.30;;
26271;SDS011;13997;48.902;12.472;2022-09-17T04:55:42;8.13;;;3.28;;
26271;SDS011;13997;48.902;12.472;2022-09-17T04:58:08;16.27;;;4.13;;
26271;SDS011;13997;48.902;12.472;2022-09-17T05:00:34;9.63;;;3.67;;
26271;SDS011;13997;48.902;12.472;2022-09-17T05:03:00;7.63;;;3.35;;
26271;SDS011;13997;48.902;12.472;2022-09-17T05:05:25;8.32;;;3.58;;
26271;SDS011;13997;48.902;12.472;2022-09-17T05:07:51;8.73;;;4.13;;
26271;SDS011;13997;48.902;12.472;2022-09-17T05:10:17;15.70;;;4.00;;
26271;SDS011;13997;48.902;12.472;2022-09-17T05:12:50;10.70;;;3.70;;
26271;SDS011;13997;48.902;12.472;2022-09-17T05:15:17;10.63;;;3.70;;
26271;SDS011;13997;48.902;12.472;2022-09-17T05:17:43;13.25;;;4.05;;
26271;SDS011;13997;48.902;12.472;2022-09-17T05:20:09;20.10;;;7.85;;
26271;SDS011;13997;48.902;12.472;2022-09-17T05:22:39;13.82;;;4.55;;
26271;SDS011;13997;48.902;12.472;2022-09-17T05:25:13;14.35;;;4.10;;
26271;SDS011;13997;48.902;12.472;2022-09-17T05:27:40;10.07;;;4.10;;
26271;SDS011;13997;48.902;12.472;2022-09-17T05:30:07;11.38;;;4.78;;
26271;SDS011;13997;48.902;12.472;2022-09-17T05:32:34;12.43;;;5.53;;
26271;SDS011;13997;48.902;12.472;2022-09-17T05:35:00;14.30;;;5.97;;
26271;SDS011;13997;48.902;12.472;2022-09-17T05:37:26;44.65;;;21.75;;
26271;SDS011;13997;48.902;12.472;2022-09-17T05:39:52;28.92;;;11.15;;
26271;SDS011;13997;48.902;12.472;2022-09-17T05:42:17;10.75;;;5.28;;
26271;SDS011;13997;48.902;12.472;2022-09-17T05:44:43;13.00;;;5.80;;
26271;SDS011;13997;48.902;12.472;2022-09-17T05:47:08;28.92;;;19.08;;
26271;SDS011;13997;48.902;12.472;2022-09-17T05:49:34;106.05;;;57.85;;
26271;SDS011;13997;48.902;12.472;2022-09-17T05:52:00;197.93;;;122.03;;
26271;SDS011;13997;48.902;12.472;2022-09-17T05:54:27;155.50;;;105.15;;
26271;SDS011;13997;48.902;12.472;2022-09-17T05:56:52;109.85;;;82.88;;
26271;SDS011;13997;48.902;12.472;2022-09-17T05:59:18;24.50;;;13.93;;
26271;SDS011;13997;48.902;12.472;2022-09-17T06:01:44;10.02;;;5.65;;
26271;SDS011;13997;48.902;12.472;2022-09-17T06:04:10;12.57;;;4.80;;
26271;SDS011;13997;48.902;12.472;2022-09-17T06:06:36;13.18;;;4.10;;
26271;SDS011;13997;48.902;12.472;2022-09-17T06:09:03;8.35;;;3.60;;
26271;SDS011;13997;48.902;12.472;2022-09-17T06:11:30;14.55;;;3.53;;
26271;SDS011;13997;48.902;12.472;2022-09-17T06:13:55;11.70;;;3.28;;
26271;SDS011;13997;48.902;12.472;2022-09-17T06:16:21;12.63;;;4.13;;
26271;SDS011;13997;48.902;12.472;2022-09-17T06:18:48;11.48;;;4.97;;
26271;SDS011;13997;48.902;12.472;2022-09-17T06:21:14;10.27;;;3.40;;
26271;SDS011;13997;48.902;12.472;2022-09-17T06:23:41;12.32;;;3.10;;
26271;SDS011;13997;48.902;12.472;2022-09-17T06:26:07;11.15;;;2.72;;
26271;SDS011;13997;48.902;12.472;2022-09-17T06:28:33;5.05;;;2.85;;
26271;SDS011;13997;48.902;12.472;2022-09-17T06:31:00;10.38;;;2.55;;
26271;SDS011;13997;48.902;12.472;2022-09-17T06:33:26;10.40;;;2.90;;
26271;SDS011;13997;48.902;12.472;2022-09-17T06:35:55;8.98;;;2.67;;
26271;SDS011;13997;48.902;12.472;2022-09-17T06:38:24;16.95;;;3.28;;
26271;SDS011;13997;48.902;12.472;2022-09-17T06:40:53;14.52;;;3.58;;
26271;SDS011;13997;48.902;12.472;2022-09-17T06:43:20;13.40;;;3.53;;
26271;SDS011;13997;48.902;12.472;2022-09-17T06:45:53;7.75;;;2.50;;
26271;SDS011;13997;48.902;12.472;2022-09-17T06:48:23;11.68;;;2.53;;
26271;SDS011;13997;48.902;12.472;2022-09-17T06:50:50;11.25;;;3.00;;
26271;SDS011;13997;48.902;12.472;2022-09-17T06:53:18;9.75;;;2.45;;
26271;SDS011;13997;48.902;12.472;2022-09-17T06:55:44;8.98;;;2.60;;
26271;SDS011;13997;48.902;12.472;2022-09-17T06:58:10;9.13;;;2.10;;
26271;SDS011;13997;48.902;12.472;2022-09-17T07:00:36;8.32;;;2.28;;
26271;SDS011;13997;48.902;12.472;2022-09-17T07:03:01;9.35;;;2.08;;
26271;SDS011;13997;48.902;12.472;2022-09-17T07:05:27;12.00;;;2.20;;
26271;SDS011;13997;48.902;12.472;2022-09-17T07:07:53;9.80;;;2.40;;
26271;SDS011;13997;48.902;12.472;2022-09-17T07:10:20;10.48;;;2.38;;
26271;SDS011;13997;48.902;12.472;2022-09-17T07:12:51;10.02;;;2.47;;
26271;SDS011;13997;48.902;12.472;2022-09-17T07:15:16;8.98;;;2.30;;
26271;SDS011;13997;48.902;12.472;2022-09-17T07:17:42;6.65;;;1.80;;
26271;SDS011;13997;48.902;12.472;2022-09-17T07:20:08;12.20;;;2.08;;
26271;SDS011;13997;48.902;12.472;2022-09-17T07:22:35;12.35;;;2.85;;
26271;SDS011;13997;48.902;12.472;2022-09-17T07:25:01;10.40;;;1.88;;
26271;SDS011;13997;48.902;12.472;2022-09-17T07:27:27;6.80;;;1.80;;
26271;SDS011;13997;48.902;12.472;2022-09-17T07:29:53;7.18;;;2.00;;
26271;SDS011;13997;48.902;12.472;2022-09-17T07:32:19;17.58;;;2.40;;
26271;SDS011;13997;48.902;12.472;2022-09-17T07:34:45;11.98;;;2.47;;
26271;SDS011;13997;48.902;12.472;2022-09-17T07:37:11;8.10;;;2.20;;
26271;SDS011;13997;48.902;12.472;2022-09-17T07:39:36;12.65;;;2.05;;
26271;SDS011;13997;48.902;12.472;2022-09-17T07:42:02;13.95;;;2.40;;
26271;SDS011;13997;48.902;12.472;2022-09-17T07:44:28;9.27;;;1.88;;
26271;SDS011;13997;48.902;12.472;2022-09-17T07:46:54;12.85;;;2.15;;
26271;SDS011;13997;48.902;12.472;2022-09-17T07:49:20;12.20;;;2.20;;
26271;SDS011;13997;48.902;12.472;2022-09-17T07:51:46;6.97;;;1.75;;
26271;SDS011;13997;48.902;12.472;2022-09-17T07:54:11;5.82;;;1.90;;
26271;SDS011;13997;48.902;12.472;2022-09-17T07:56:37;9.82;;;1.95;;
26271;SDS011;13997;48.902;12.472;2022-09-17T07:59:03;6.60;;;1.90;;
26271;SDS011;13997;48.902;12.472;2022-09-17T08:01:30;12.82;;;2.53;;
26271;SDS011;13997;48.902;12.472;2022-09-17T08:03:58;8.60;;;2.13;;
26271;SDS011;13997;48.902;12.472;2022-09-17T08:06:25;7.20;;;1.85;;
26271;SDS011;13997;48.902;12.472;2022-09-17T08:08:52;8.85;;;2.08;;
26271;SDS011;13997;48.902;12.472;2022-09-17T08:11:24;8.18;;;1.65;;
26271;SDS011;13997;48.902;12.472;2022-09-17T08:13:51;4.50;;;2.15;;
26271;SDS011;13997;48.902;12.472;2022-09-17T08:16:18;7.80;;;2.00;;
26271;SDS011;13997;48.902;12.472;2022-09-17T08:18:44;12.50;;;2.70;;
26271;SDS011;13997;48.902;12.472;2022-09-17T08:21:12;7.32;;;1.70;;
26271;SDS011;13997;48.902;12.472;2022-09-17T08:23:40;12.18;;;1.90;;
26271;SDS011;13997;48.902;12.472;2022-09-17T08:26:07;6.10;;;1.50;;
26271;SDS011;13997;48.902;12.472;2022-09-17T08:28:37;5.00;;;1.42;;
26271;SDS011;13997;48.902;12.472;2022-09-17T08:31:05;3.88;;;1.25;;
26271;SDS011;13997;48.902;12.472;2022-09-17T08:33:33;6.30;;;1.55;;
26271;SDS011;13997;48.902;12.472;2022-09-17T08:36:00;5.60;;;1.10;;
26271;SDS011;13997;48.902;12.472;2022-09-17T08:38:26;4.03;;;1.20;;
26271;SDS011;13997;48.902;12.472;2022-09-17T08:43:44;3.72;;;1.20;;
26271;SDS011;13997;48.902;12.472;2022-09-17T08:49:00;2.95;;;1.10;;
26271;SDS011;13997;48.902;12.472;2022-09-17T08:51:47;3.35;;;1.20;;
26271;SDS011;13997;48.902;12.472;2022-09-17T08:57:28;4.75;;;1.30;;
26271;SDS011;13997;48.902;12.472;2022-09-17T09:00:07;4.40;;;1.30;;
26271;SDS011;13997;48.902;12.472;2022-09-17T09:05:47;2.08;;;0.75;;
26271;SDS011;13997;48.902;12.472;2022-09-17T09:10:55;3.55;;;1.20;;
26271;SDS011;13997;48.902;12.472;2022-09-17T09:13:25;2.45;;;0.80;;
26271;SDS011;13997;48.902;12.472;2022-09-17T09:18:53;3.55;;;0.90;;
26271;SDS011;13997;48.902;12.472;2022-09-17T09:29:14;2.45;;;1.15;;
26271;SDS011;13997;48.902;12.472;2022-09-17T09:34:57;3.42;;;1.10;;
26271;SDS011;13997;48.902;12.472;2022-09-17T09:37:29;10.35;;;1.40;;
26271;SDS011;13997;48.902;12.472;2022-09-17T09:40:21;3.30;;;1.20;;
26271;SDS011;13997;48.902;12.472;2022-09-17T09:42:52;7.00;;;1.70;;
26271;SDS011;13997;48.902;12.472;2022-09-17T09:45:26;4.18;;;1.83;;
26271;SDS011;13997;48.902;12.472;2022-09-17T09:48:06;5.13;;;0.90;;
26271;SDS011;13997;48.902;12.472;2022-09-17T09:50:45;5.07;;;1.27;;
26271;SDS011;13997;48.902;12.472;2022-09-17T09:59:00;5.95;;;1.20;;
26271;SDS011;13997;48.902;12.472;2022-09-17T10:01:30;5.30;;;1.30;;
26271;SDS011;13997;48.902;12.472;2022-09-17T10:04:05;2.03;;;0.90;;
26271;SDS011;13997;48.902;12.472;2022-09-17T10:06:42;1.88;;;1.13;;
26271;SDS011;13997;48.902;12.472;2022-09-17T10:09:08;2.17;;;1.15;;
26271;SDS011;13997;48.902;12.472;2022-09-17T10:11:36;2.22;;;1.15;;
26271;SDS011;13997;48.902;12.472;2022-09-17T10:19:40;4.03;;;1.33;;
26271;SDS011;13997;48.902;12.472;2022-09-17T10:22:17;2.63;;;1.40;;
26271;SDS011;13997;48.902;12.472;2022-09-17T10:24:50;1.65;;;1.05;;
26271;SDS011;13997;48.902;12.472;2022-09-17T10:27:18;5.38;;;1.30;;
26271;SDS011;13997;48.902;12.472;2022-09-17T10:29:47;2.65;;;1.23;;
26271;SDS011;13997;48.902;12.472;2022-09-17T10:32:16;3.45;;;1.40;;
26271;SDS011;13997;48.902;12.472;2022-09-17T10:37:50;5.13;;;1.90;;
26271;SDS011;13997;48.902;12.472;2022-09-17T10:42:42;2.30;;;1.17;;
26271;SDS011;13997;48.902;12.472;2022-09-17T10:45:22;6.15;;;2.10;;
26271;SDS011;13997;48.902;12.472;2022-09-17T10:47:52;6.38;;;2.20;;
26271;SDS011;13997;48.902;12.472;2022-09-17T10:50:27;7.20;;;2.00;;
26271;SDS011;13997;48.902;12.472;2022-09-17T10:52:57;4.95;;;2.00;;
26271;SDS011;13997;48.902;12.472;2022-09-17T11:04:42;3.42;;;2.08;;
26271;SDS011;13997;48.902;12.472;2022-09-17T11:07:24;6.30;;;2.22;;
26271;SDS011;13997;48.902;12.472;2022-09-17T11:18:03;8.10;;;2.90;;
26271;SDS011;13997;48.902;12.472;2022-09-17T11:20:54;6.57;;;3.03;;
26271;SDS011;13997;48.902;12.472;2022-09-17T11:29:03;10.65;;;3.38;;
26271;SDS011;13997;48.902;12.472;2022-09-17T11:32:00;8.20;;;2.95;;
26271;SDS011;13997;48.902;12.472;2022-09-17T11:35:03;5.45;;;2.60;;
26271;SDS011;13997;48.902;12.472;2022-09-17T11:37:36;11.13;;;2.80;;
26271;SDS011;13997;48.902;12.472;2022-09-17T11:42:43;8.63;;;2.92;;
26271;SDS011;13997;48.902;12.472;2022-09-17T11:45:23;9.40;;;2.35;;
26271;SDS011;13997;48.902;12.472;2022-09-17T11:47:55;7.93;;;2.35;;
26271;SDS011;13997;48.902;12.472;2022-09-17T11:50:43;16.98;;;4.65;;
26271;SDS011;13997;48.902;12.472;2022-09-17T11:53:33;15.07;;;5.80;;
26271;SDS011;13997;48.902;12.472;2022-09-17T11:56:08;13.38;;;2.95;;
26271;SDS011;13997;48.902;12.472;2022-09-17T12:01:37;9.43;;;2.50;;
26271;SDS011;13997;48.902;12.472;2022-09-17T12:07:03;7.28;;;2.50;;
26271;SDS011;13997;48.902;12.472;2022-09-17T12:09:32;10.88;;;3.20;;
26271;SDS011;13997;48.902;12.472;2022-09-17T12:17:05;15.45;;;2.58;;
26271;SDS011;13997;48.902;12.472;2022-09-17T12:19:39;12.63;;;3.17;;
26271;SDS011;13997;48.902;12.472;2022-09-17T12:22:18;12.57;;;3.35;;
26271;SDS011;13997;48.902;12.472;2022-09-17T12:24:52;11.05;;;2.72;;
26271;SDS011;13997;48.902;12.472;2022-09-17T12:27:31;7.00;;;2.50;;
26271;SDS011;13997;48.902;12.472;2022-09-17T12:30:09;9.32;;;2.88;;
26271;SDS011;13997;48.902;12.472;2022-09-17T12:38:34;15.80;;;5.03;;
26271;SDS011;13997;48.902;12.472;2022-09-17T12:49:34;12.45;;;4.53;;
26271;SDS011;13997;48.902;12.472;2022-09-17T12:55:09;13.07;;;4.30;;
26271;SDS011;13997;48.902;12.472;2022-09-17T12:58:01;11.50;;;4.35;;
26271;SDS011;13997;48.902;12.472;2022-09-17T13:00:38;10.57;;;3.53;;
26271;SDS011;13997;48.902;12.472;2022-09-17T13:03:21;15.02;;;5.05;;
26271;SDS011;13997;48.902;12.472;2022-09-17T13:05:58;13.35;;;5.10;;
26271;SDS011;13997;48.902;12.472;2022-09-17T13:14:29;14.90;;;4.45;;
26271;SDS011;13997;48.902;12.472;2022-09-17T13:20:28;15.52;;;4.65;;
26271;SDS011;13997;48.902;12.472;2022-09-17T13:22:57;23.20;;;7.35;;
26271;SDS011;13997;48.902;12.472;2022-09-17T13:25:23;9.00;;;4.30;;
26271;SDS011;13997;48.902;12.472;2022-09-17T13:27:50;15.48;;;4.38;;
26271;SDS011;13997;48.902;12.472;2022-09-17T13:31:06;7.45;;;2.63;;
26271;SDS011;13997;48.902;12.472;2022-09-17T13:39:06;10.85;;;2.20;;
26271;SDS011;13997;48.902;12.472;2022-09-17T13:41:35;9.23;;;2.20;;
26271;SDS011;13997;48.902;12.472;2022-09-17T13:46:31;9.48;;;2.25;;
26271;SDS011;13997;48.902;12.472;2022-09-17T13:48:59;7.55;;;1.70;;
26271;SDS011;13997;48.902;12.472;2022-09-17T13:54:01;10.05;;;2.35;;
26271;SDS011;13997;48.902;12.472;2022-09-17T13:56:40;8.90;;;2.15;;
26271;SDS011;13997;48.902;12.472;2022-09-17T13:59:14;6.82;;;2.20;;
26271;SDS011;13997;48.902;12.472;2022-09-17T14:06:57;5.70;;;2.13;;
26271;SDS011;13997;48.902;12.472;2022-09-17T14:09:30;12.90;;;5.07;;
26271;SDS011;13997;48.902;12.472;2022-09-17T14:11:58;5.10;;;2.03;;
26271;SDS011;13997;48.902;12.472;2022-09-17T14:16:52;10.10;;;4.07;;
26271;SDS011;13997;48.902;12.472;2022-09-17T14:19:19;7.85;;;2.10;;
26271;SDS011;13997;48.902;12.472;2022-09-17T14:22:14;11.48;;;3.50;;
26271;SDS011;13997;48.902;12.472;2022-09-17T14:24:48;7.95;;;2.65;;
26271;SDS011;13997;48.902;12.472;2022-09-17T14:32:49;42.83;;;19.65;;
26271;SDS011;13997;48.902;12.472;2022-09-17T14:35:25;3.47;;;1.42;;
26271;SDS011;13997;48.902;12.472;2022-09-17T14:38:06;4.57;;;1.15;;
26271;SDS011;13997;48.902;12.472;2022-09-17T14:40:35;2.28;;;1.10;;
26271;SDS011;13997;48.902;12.472;2022-09-17T14:43:14;3.92;;;1.30;;
26271;SDS011;13997;48.902;12.472;2022-09-17T14:46:00;6.23;;;1.13;;
26271;SDS011;13997;48.902;12.472;2022-09-17T14:48:30;4.95;;;1.20;;
26271;SDS011;13997;48.902;12.472;2022-09-17T14:51:16;2.38;;;1.20;;
26271;SDS011;13997;48.902;12.472;2022-09-17T14:53:49;6.63;;;1.40;;
26271;SDS011;13997;48.902;12.472;2022-09-17T14:56:33;4.75;;;1.30;;
26271;SDS011;13997;48.902;12.472;2022-09-17T14:59:08;2.92;;;1.20;;
26271;SDS011;13997;48.902;12.472;2022-09-17T15:01:52;3.85;;;1.38;;
26271;SDS011;13997;48.902;12.472;2022-09-17T15:04:22;2.17;;;1.23;;
26271;SDS011;13997;48.902;12.472;2022-09-17T15:06:49;2.70;;;1.40;;
26271;SDS011;13997;48.902;12.472;2022-09-17T15:09:23;5.10;;;1.88;;
26271;SDS011;13997;48.902;12.472;2022-09-17T15:11:51;5.55;;;1.50;;
26271;SDS011;13997;48.902;12.472;2022-09-17T15:14:20;4.63;;;1.83;;
26271;SDS011;13997;48.902;12.472;2022-09-17T15:16:52;3.97;;;2.05;;
26271;SDS011;13997;48.902;12.472;2022-09-17T15:21:55;5.93;;;1.80;;
26271;SDS011;13997;48.902;12.472;2022-09-17T15:24:33;6.72;;;1.42;;
26271;SDS011;13997;48.902;12.472;2022-09-17T15:27:35;9.20;;;2.03;;
26271;SDS011;13997;48.902;12.472;2022-09-17T15:30:23;11.95;;;3.03;;
26271;SDS011;13997;48.902;12.472;2022-09-17T15:32:50;5.68;;;2.38;;
26271;SDS011;13997;48.902;12.472;2022-09-17T15:37:47;8.35;;;4.10;;
26271;SDS011;13997;48.902;12.472;2022-09-17T15:42:54;8.50;;;2.85;;
26271;SDS011;13997;48.902;12.472;2022-09-17T15:45:26;3.97;;;1.90;;
26271;SDS011;13997;48.902;12.472;2022-09-17T15:47:54;11.55;;;1.52;;
26271;SDS011;13997;48.902;12.472;2022-09-17T15:50:27;5.82;;;1.73;;
26271;SDS011;13997;48.902;12.472;2022-09-17T15:55:37;4.63;;;1.60;;
26271;SDS011;13997;48.902;12.472;2022-09-17T15:58:25;4.88;;;1.90;;
26271;SDS011;13997;48.902;12.472;2022-09-17T16:08:45;55.70;;;33.67;;
26271;SDS011;13997;48.902;12.472;2022-09-17T16:11:13;22.83;;;15.27;;
26271;SDS011;13997;48.902;12.472;2022-09-17T16:13:39;33.30;;;26.08;;
26271;SDS011;13997;48.902;12.472;2022-09-17T16:16:05;23.15;;;19.33;;
26271;SDS011;13997;48.902;12.472;2022-09-17T16:18:33;43.55;;;34.30;;
26271;SDS011;13997;48.902;12.472;2022-09-17T16:21:01;12.90;;;11.13;;
26271;SDS011;13997;48.902;12.472;2022-09-17T16:23:27;5.05;;;3.30;;
26271;SDS011;13997;48.902;12.472;2022-09-17T16:25:53;3.92;;;2.20;;
26271;SDS011;13997;48.902;12.472;2022-09-17T16:28:18;5.63;;;2.20;;
26271;SDS011;13997;48.902;12.472;2022-09-17T16:30:45;3.58;;;1.70;;
26271;SDS011;13997;48.902;12.472;2022-09-17T16:33:13;4.95;;;2.03;;
26271;SDS011;13997;48.902;12.472;2022-09-17T16:35:40;4.80;;;2.00;;
26271;SDS011;13997;48.902;12.472;2022-09-17T16:38:06;3.53;;;1.90;;
26271;SDS011;13997;48.902;12.472;2022-09-17T16:40:33;3.63;;;1.60;;
26271;SDS011;13997;48.902;12.472;2022-09-17T16:42:59;5.43;;;1.42;;
26271;SDS011;13997;48.902;12.472;2022-09-17T16:45:26;4.05;;;1.33;;
26271;SDS011;13997;48.902;12.472;2022-09-17T16:47:55;1.92;;;1.13;;
26271;SDS011;13997;48.902;12.472;2022-09-17T16:50:21;4.32;;;1.30;;
26271;SDS011;13997;48.902;12.472;2022-09-17T16:52:47;3.65;;;1.70;;
26271;SDS011;13997;48.902;12.472;2022-09-17T16:55:14;2.30;;;1.00;;
26271;SDS011;13997;48.902;12.472;2022-09-17T16:57:41;2.58;;;1.00;;
26271;SDS011;13997;48.902;12.472;2022-09-17T17:00:08;1.95;;;1.15;;
26271;SDS011;13997;48.902;12.472;2022-09-17T17:02:40;3.17;;;1.38;;
26271;SDS011;13997;48.902;12.472;2022-09-17T17:05:06;5.00;;;1.90;;
26271;SDS011;13997;48.902;12.472;2022-09-17T17:07:33;4.03;;;1.73;;
26271;SDS011;13997;48.902;12.472;2022-09-17T17:09:59;1.80;;;1.02;;
26271;SDS011;13997;48.902;12.472;2022-09-17T17:12:26;2.72;;;0.90;;
26271;SDS011;13997;48.902;12.472;2022-09-17T17:14:51;2.42;;;1.10;;
26271;SDS011;13997;48.902;12.472;2022-09-17T17:17:17;2.92;;;1.02;;
26271;SDS011;13997;48.902;12.472;2022-09-17T17:19:44;3.95;;;1.33;;
26271;SDS011;13997;48.902;12.472;2022-09-17T17:22:11;88.85;;;49.45;;
26271;SDS011;13997;48.902;12.472;2022-09-17T17:24:37;14.88;;;4.47;;
26271;SDS011;13997;48.902;12.472;2022-09-17T17:27:03;4.70;;;2.40;;
26271;SDS011;13997;48.902;12.472;2022-09-17T17:29:29;3.13;;;1.98;;
26271;SDS011;13997;48.902;12.472;2022-09-17T17:31:54;5.38;;;3.08;;
26271;SDS011;13997;48.902;12.472;2022-09-17T17:34:20;4.05;;;2.92;;
26271;SDS011;13997;48.902;12.472;2022-09-17T17:36:49;4.78;;;2.50;;
26271;SDS011;13997;48.902;12.472;2022-09-17T17:39:15;5.70;;;2.80;;
26271;SDS011;13997;48.902;12.472;2022-09-17T17:41:41;8.20;;;2.90;;
26271;SDS011;13997;48.902;12.472;2022-09-17T17:44:07;6.22;;;2.90;;
26271;SDS011;13997;48.902;12.472;2022-09-17T17:46:39;6.80;;;2.80;;
26271;SDS011;13997;48.902;12.472;2022-09-17T17:49:06;5.72;;;2.05;;
26271;SDS011;13997;48.902;12.472;2022-09-17T17:51:33;5.55;;;1.38;;
26271;SDS011;13997;48.902;12.472;2022-09-17T17:53:59;6.32;;;1.80;;
26271;SDS011;13997;48.902;12.472;2022-09-17T17:56:25;3.15;;;1.75;;
26271;SDS011;13997;48.902;12.472;2022-09-17T17:58:54;4.95;;;1.48;;
26271;SDS011;13997;48.902;12.472;2022-09-17T18:01:26;2.75;;;1.27;;